createdAt,value
2017-02-20T00:00:22.858Z,0
2017-02-20T00:01:33.006Z,0
2017-02-20T00:02:42.762Z,0
2017-02-20T00:03:52.912Z,0
2017-02-20T00:05:02.020Z,0
2017-02-20T00:06:12.158Z,0
2017-02-20T00:07:21.094Z,0
2017-02-20T00:08:30.413Z,0
2017-02-20T00:09:39.336Z,0
2017-02-20T00:10:48.727Z,0
2017-02-20T00:11:58.056Z,0
2017-02-20T00:13:07.385Z,0
2017-02-20T00:14:16.702Z,0
2017-02-20T00:15:26.832Z,0
2017-02-20T00:16:36.185Z,0
2017-02-20T00:17:46.332Z,0
2017-02-20T00:18:56.100Z,0
2017-02-20T00:20:05.036Z,0
2017-02-20T00:21:15.605Z,0
2017-02-20T00:22:25.646Z,0
2017-02-20T00:23:34.996Z,0
2017-02-20T00:24:45.163Z,0
2017-02-20T00:25:55.715Z,0
2017-02-20T00:27:05.037Z,0
2017-02-20T00:28:14.660Z,0
2017-02-20T00:29:24.812Z,0
2017-02-20T00:30:34.139Z,0
2017-02-20T00:31:43.869Z,0
2017-02-20T00:32:52.792Z,0
2017-02-20T00:34:02.675Z,0
2017-02-20T00:35:12.412Z,0
2017-02-20T00:36:22.128Z,0
2017-02-20T00:37:31.879Z,0
2017-02-20T00:38:42.049Z,0
2017-02-20T00:39:51.373Z,0
2017-02-20T00:41:00.316Z,0
2017-02-20T00:42:10.482Z,0
2017-02-20T00:43:20.208Z,0
2017-02-20T00:44:29.526Z,0
2017-02-20T00:45:39.325Z,0
2017-02-20T00:46:48.639Z,0
2017-02-20T00:47:57.979Z,0
2017-02-20T00:49:07.730Z,0
2017-02-20T00:50:17.076Z,0
2017-02-20T00:51:26.107Z,0
2017-02-20T00:52:36.282Z,0
2017-02-20T00:53:45.607Z,0
2017-02-20T00:54:55.334Z,0
2017-02-20T00:56:05.475Z,0
2017-02-20T00:57:14.894Z,0
2017-02-20T00:58:23.834Z,0
2017-02-20T00:59:32.764Z,0
2017-02-20T01:00:42.494Z,0
2017-02-20T01:01:51.815Z,0
2017-02-20T01:03:02.720Z,0
2017-02-20T01:04:12.045Z,0
2017-02-20T01:05:20.967Z,0
2017-02-20T01:06:31.119Z,0
2017-02-20T01:07:40.031Z,0
2017-02-20T01:08:49.044Z,0
2017-02-20T01:09:58.782Z,0
2017-02-20T01:11:08.544Z,0
2017-02-20T01:12:18.291Z,0
2017-02-20T01:13:28.451Z,0
2017-02-20T01:14:38.639Z,0
2017-02-20T01:15:48.778Z,0
2017-02-20T01:16:58.924Z,0
2017-02-20T01:18:08.660Z,0
2017-02-20T01:19:18.410Z,0
2017-02-20T01:20:27.911Z,0
2017-02-20T01:21:37.241Z,0
2017-02-20T01:22:46.582Z,0
2017-02-20T01:23:55.917Z,0
2017-02-20T01:25:05.645Z,0
2017-02-20T01:26:15.788Z,0
2017-02-20T01:27:25.540Z,0
2017-02-20T01:28:34.870Z,0
2017-02-20T01:29:45.443Z,0
2017-02-20T01:30:55.598Z,0
2017-02-20T01:32:05.910Z,0
2017-02-20T01:33:15.240Z,0
2017-02-20T01:34:24.567Z,0
2017-02-20T01:35:33.488Z,0
2017-02-20T01:36:44.038Z,0
2017-02-20T01:37:53.939Z,0
2017-02-20T01:39:02.883Z,0
2017-02-20T01:40:12.210Z,0
2017-02-20T01:41:21.942Z,0
2017-02-20T01:42:32.106Z,0
2017-02-20T01:43:41.601Z,0
2017-02-20T01:44:50.948Z,0
2017-02-20T01:46:01.503Z,0
2017-02-20T01:47:11.243Z,0
2017-02-20T01:48:20.576Z,0
2017-02-20T01:49:29.948Z,0
2017-02-20T01:50:39.690Z,0
2017-02-20T01:51:49.019Z,0
2017-02-20T01:52:59.160Z,0
2017-02-20T01:54:08.896Z,0
2017-02-20T01:55:19.371Z,0
2017-02-20T01:56:29.103Z,0
2017-02-20T01:57:38.014Z,0
2017-02-20T01:58:47.341Z,0
2017-02-20T01:59:57.080Z,0
2017-02-20T02:01:06.873Z,0
2017-02-20T02:02:16.223Z,0
2017-02-20T02:03:25.588Z,0
2017-02-20T02:04:34.505Z,0
2017-02-20T02:05:43.839Z,0
2017-02-20T02:06:53.720Z,0
2017-02-20T02:08:03.462Z,0
2017-02-20T02:09:13.186Z,0
2017-02-20T02:10:22.118Z,0
2017-02-20T02:11:31.440Z,0
2017-02-20T02:12:40.819Z,0
2017-02-20T02:13:50.630Z,0
2017-02-20T02:15:00.370Z,0
2017-02-20T02:16:09.701Z,0
2017-02-20T02:17:19.436Z,0
2017-02-20T02:18:29.997Z,0
2017-02-20T02:19:38.913Z,0
2017-02-20T02:20:49.054Z,0
2017-02-20T02:21:58.394Z,0
2017-02-20T02:23:07.317Z,0
2017-02-20T02:24:16.553Z,0
2017-02-20T02:25:26.310Z,0
2017-02-20T02:26:36.057Z,0
2017-02-20T02:27:44.970Z,0
2017-02-20T02:28:54.304Z,0
2017-02-20T02:30:04.142Z,0
2017-02-20T02:31:13.469Z,0
2017-02-20T02:32:22.386Z,0
2017-02-20T02:33:32.527Z,0
2017-02-20T02:34:42.276Z,0
2017-02-20T02:35:51.653Z,0
2017-02-20T02:37:00.977Z,0
2017-02-20T02:38:10.311Z,0
2017-02-20T02:39:19.636Z,0
2017-02-20T02:40:28.962Z,0
2017-02-20T02:41:38.550Z,0
2017-02-20T02:42:48.281Z,0
2017-02-20T02:43:58.009Z,0
2017-02-20T02:45:07.752Z,0
2017-02-20T02:46:17.533Z,0
2017-02-20T02:47:26.507Z,0
2017-02-20T02:48:35.833Z,0
2017-02-20T02:49:44.755Z,0
2017-02-20T02:50:54.502Z,0
2017-02-20T02:52:03.421Z,0
2017-02-20T02:53:13.763Z,0
2017-02-20T02:54:23.100Z,0
2017-02-20T02:55:32.432Z,0
2017-02-20T02:56:42.180Z,0
2017-02-20T02:57:51.496Z,0
2017-02-20T02:59:01.043Z,0
2017-02-20T03:00:11.187Z,0
2017-02-20T03:01:20.113Z,0
2017-02-20T03:02:30.263Z,0
2017-02-20T03:03:39.178Z,0
2017-02-20T03:04:48.297Z,0
2017-02-20T03:05:57.639Z,0
2017-02-20T03:07:07.363Z,0
2017-02-20T03:08:16.279Z,0
2017-02-20T03:09:25.216Z,0
2017-02-20T03:10:34.538Z,0
2017-02-20T03:11:44.270Z,0
2017-02-20T03:12:53.596Z,0
2017-02-20T03:14:02.532Z,0
2017-02-20T03:15:12.290Z,0
2017-02-20T03:16:22.088Z,0
2017-02-20T03:17:31.819Z,0
2017-02-20T03:18:41.970Z,0
2017-02-20T03:19:51.723Z,0
2017-02-20T03:21:02.283Z,0
2017-02-20T03:22:11.852Z,0
2017-02-20T03:23:21.180Z,0
2017-02-20T03:24:31.464Z,0
2017-02-20T03:25:40.783Z,0
2017-02-20T03:26:51.343Z,0
2017-02-20T03:28:01.276Z,0
2017-02-20T03:29:11.056Z,0
2017-02-20T03:30:20.797Z,0
2017-02-20T03:31:30.146Z,0
2017-02-20T03:32:39.075Z,0
2017-02-20T03:33:48.853Z,0
2017-02-20T03:34:57.769Z,0
2017-02-20T03:36:07.110Z,0
2017-02-20T03:37:16.844Z,0
2017-02-20T03:38:26.595Z,0
2017-02-20T03:39:35.586Z,0
2017-02-20T03:40:44.915Z,0
2017-02-20T03:41:54.668Z,0
2017-02-20T03:43:04.814Z,0
2017-02-20T03:44:14.140Z,0
2017-02-20T03:45:23.584Z,0
2017-02-20T03:46:33.319Z,0
2017-02-20T03:47:42.640Z,0
2017-02-20T03:48:51.559Z,0
2017-02-20T03:50:00.888Z,0
2017-02-20T03:51:10.770Z,0
2017-02-20T03:52:19.695Z,0
2017-02-20T03:53:28.626Z,0
2017-02-20T03:54:38.373Z,0
2017-02-20T03:55:48.115Z,0
2017-02-20T03:56:58.044Z,0
2017-02-20T03:58:07.365Z,0
2017-02-20T03:59:17.506Z,0
2017-02-20T04:00:27.245Z,0
2017-02-20T04:01:36.177Z,0
2017-02-20T04:02:45.529Z,0
2017-02-20T04:03:54.854Z,0
2017-02-20T04:05:04.603Z,0
2017-02-20T04:06:14.339Z,0
2017-02-20T04:07:23.670Z,0
2017-02-20T04:08:33.708Z,0
2017-02-20T04:09:43.040Z,0
2017-02-20T04:10:52.768Z,0
2017-02-20T04:12:02.921Z,0
2017-02-20T04:13:12.657Z,0
2017-02-20T04:14:21.670Z,0
2017-02-20T04:15:31.435Z,0
2017-02-20T04:16:41.177Z,0
2017-02-20T04:17:50.499Z,0
2017-02-20T04:18:59.830Z,0
2017-02-20T04:20:09.741Z,0
2017-02-20T04:21:19.495Z,0
2017-02-20T04:22:28.836Z,0
2017-02-20T04:23:37.745Z,0
2017-02-20T04:24:47.098Z,0
2017-02-20T04:25:56.593Z,0
2017-02-20T04:27:05.919Z,0
2017-02-20T04:28:14.843Z,0
2017-02-20T04:29:24.174Z,0
2017-02-20T04:30:33.113Z,0
2017-02-20T04:31:42.611Z,0
2017-02-20T04:32:52.770Z,0
2017-02-20T04:34:02.114Z,0
2017-02-20T04:35:11.451Z,0
2017-02-20T04:36:21.192Z,0
2017-02-20T04:37:30.157Z,0
2017-02-20T04:38:39.495Z,0
2017-02-20T04:39:48.839Z,0
2017-02-20T04:40:58.176Z,0
2017-02-20T04:42:07.910Z,0
2017-02-20T04:43:17.296Z,0
2017-02-20T04:44:27.038Z,0
2017-02-20T04:45:36.366Z,0
2017-02-20T04:46:46.117Z,0
2017-02-20T04:47:55.894Z,0
2017-02-20T04:49:04.820Z,0
2017-02-20T04:50:14.563Z,0
2017-02-20T04:51:23.900Z,0
2017-02-20T04:52:33.637Z,0
2017-02-20T04:53:43.787Z,0
2017-02-20T04:54:53.562Z,0
2017-02-20T04:56:03.303Z,0
2017-02-20T04:57:12.239Z,0
2017-02-20T04:58:21.581Z,0
2017-02-20T04:59:30.491Z,0
2017-02-20T05:00:39.455Z,0
2017-02-20T05:01:48.813Z,0
2017-02-20T05:02:58.153Z,0
2017-02-20T05:04:07.896Z,0
2017-02-20T05:05:18.042Z,0
2017-02-20T05:06:28.501Z,0
2017-02-20T05:07:37.828Z,0
2017-02-20T05:08:47.572Z,0
2017-02-20T05:09:57.301Z,0
2017-02-20T05:11:06.636Z,0
2017-02-20T05:12:16.126Z,0
2017-02-20T05:13:26.289Z,0
2017-02-20T05:14:35.215Z,0
2017-02-20T05:15:44.537Z,0
2017-02-20T05:16:53.459Z,0
2017-02-20T05:18:03.386Z,0
2017-02-20T05:19:12.787Z,0
2017-02-20T05:20:21.697Z,0
2017-02-20T05:21:31.027Z,0
2017-02-20T05:22:40.351Z,0
2017-02-20T05:23:49.851Z,0
2017-02-20T05:24:59.179Z,0
2017-02-20T05:26:08.102Z,0
2017-02-20T05:27:18.255Z,0
2017-02-20T05:28:28.395Z,0
2017-02-20T05:29:37.371Z,0
2017-02-20T05:30:47.121Z,0
2017-02-20T05:31:56.455Z,0
2017-02-20T05:33:07.019Z,0
2017-02-20T05:34:16.744Z,0
2017-02-20T05:35:25.783Z,0
2017-02-20T05:36:35.115Z,0
2017-02-20T05:37:44.045Z,0
2017-02-20T05:38:53.770Z,0
2017-02-20T05:40:03.519Z,0
2017-02-20T05:41:12.691Z,0
2017-02-20T05:42:21.634Z,0
2017-02-20T05:43:30.949Z,0
2017-02-20T05:44:40.270Z,0
2017-02-20T05:45:49.600Z,0
2017-02-20T05:46:58.973Z,0
2017-02-20T05:48:07.898Z,0
2017-02-20T05:49:16.824Z,0
2017-02-20T05:50:25.759Z,0
2017-02-20T05:51:35.503Z,0
2017-02-20T05:52:45.335Z,0
2017-02-20T05:53:54.263Z,0
2017-02-20T05:55:04.002Z,0
2017-02-20T05:56:13.318Z,0
2017-02-20T05:57:23.054Z,0
2017-02-20T05:58:32.124Z,0
2017-02-20T05:59:41.889Z,0
2017-02-20T06:00:52.058Z,0
2017-02-20T06:02:01.389Z,0
2017-02-20T06:03:11.130Z,0
2017-02-20T06:04:20.457Z,0
2017-02-20T06:05:29.383Z,0
2017-02-20T06:06:39.521Z,0
2017-02-20T06:07:48.444Z,0
2017-02-20T06:08:58.179Z,0
2017-02-20T06:10:07.908Z,0
2017-02-20T06:11:16.819Z,0
2017-02-20T06:12:26.568Z,0
2017-02-20T06:13:36.297Z,0
2017-02-20T06:14:46.049Z,0
2017-02-20T06:15:55.797Z,0
2017-02-20T06:17:05.546Z,0
2017-02-20T06:18:15.692Z,0
2017-02-20T06:19:25.029Z,0
2017-02-20T06:20:34.806Z,0
2017-02-20T06:21:43.748Z,0
2017-02-20T06:22:53.488Z,0
2017-02-20T06:24:02.421Z,0
2017-02-20T06:25:11.754Z,0
2017-02-20T06:26:20.682Z,0
2017-02-20T06:27:29.647Z,0
2017-02-20T06:28:39.375Z,0
2017-02-20T06:29:48.701Z,0
2017-02-20T06:30:57.616Z,0
2017-02-20T06:32:06.959Z,0
2017-02-20T06:33:16.709Z,0
2017-02-20T06:34:26.460Z,0
2017-02-20T06:35:35.842Z,5
2017-02-20T06:36:45.171Z,5
2017-02-20T06:37:55.733Z,5
2017-02-20T06:39:05.461Z,5
2017-02-20T06:40:14.784Z,5
2017-02-20T06:41:23.996Z,5
2017-02-20T06:42:32.933Z,5
2017-02-20T06:43:42.264Z,5
2017-02-20T06:44:51.995Z,5
2017-02-20T06:46:01.720Z,5
2017-02-20T06:47:10.718Z,10
2017-02-20T06:48:20.110Z,10
2017-02-20T06:49:29.046Z,10
2017-02-20T06:50:38.786Z,15
2017-02-20T06:51:48.528Z,15
2017-02-20T06:52:58.712Z,15
2017-02-20T06:54:08.444Z,15
2017-02-20T06:55:18.642Z,15
2017-02-20T06:56:27.984Z,25
2017-02-20T06:57:37.716Z,20
2017-02-20T06:58:47.956Z,15
2017-02-20T06:59:57.282Z,15
2017-02-20T07:01:07.421Z,15
2017-02-20T07:02:17.179Z,20
2017-02-20T07:03:27.322Z,15
2017-02-20T07:04:36.644Z,20
2017-02-20T07:05:45.984Z,15
2017-02-20T07:06:54.903Z,20
2017-02-20T07:08:04.639Z,20
2017-02-20T07:09:13.569Z,20
2017-02-20T07:10:22.507Z,25
2017-02-20T07:11:31.838Z,30
2017-02-20T07:12:40.752Z,30
2017-02-20T07:13:50.499Z,40
2017-02-20T07:14:59.832Z,35
2017-02-20T07:16:09.583Z,35
2017-02-20T07:17:19.315Z,35
2017-02-20T07:18:28.659Z,25
2017-02-20T07:19:38.013Z,30
2017-02-20T07:20:48.154Z,25
2017-02-20T07:21:58.289Z,30
2017-02-20T07:23:07.624Z,25
2017-02-20T07:24:16.970Z,30
2017-02-20T07:25:26.715Z,25
2017-02-20T07:26:36.441Z,35
2017-02-20T07:27:45.377Z,30
2017-02-20T07:28:54.722Z,30
2017-02-20T07:30:04.723Z,30
2017-02-20T07:31:14.483Z,30
2017-02-20T07:32:24.222Z,30
2017-02-20T07:33:33.972Z,35
2017-02-20T07:34:43.298Z,30
2017-02-20T07:35:53.088Z,30
2017-02-20T07:37:02.447Z,25
2017-02-20T07:38:11.813Z,25
2017-02-20T07:39:21.143Z,30
2017-02-20T07:40:30.463Z,25
2017-02-20T07:41:39.950Z,25
2017-02-20T07:42:49.315Z,25
2017-02-20T07:43:59.961Z,20
2017-02-20T07:45:09.731Z,30
2017-02-20T07:46:19.089Z,30
2017-02-20T07:47:28.496Z,30
2017-02-20T07:48:37.429Z,35
2017-02-20T07:49:46.365Z,35
2017-02-20T07:50:56.514Z,35
2017-02-20T07:52:06.252Z,30
2017-02-20T07:53:16.856Z,25
2017-02-20T07:54:26.744Z,25
2017-02-20T07:55:37.367Z,25
2017-02-20T07:56:48.799Z,30
2017-02-20T07:58:00.281Z,30
2017-02-20T07:59:12.320Z,30
2017-02-20T08:00:21.251Z,30
2017-02-20T08:01:30.592Z,30
2017-02-20T08:02:40.737Z,30
2017-02-20T08:03:50.061Z,35
2017-02-20T08:04:59.898Z,35
2017-02-20T08:06:09.650Z,50
2017-02-20T08:07:18.596Z,60
2017-02-20T08:08:28.330Z,70
2017-02-20T08:09:38.090Z,60
2017-02-20T08:10:47.417Z,60
2017-02-20T08:11:56.344Z,55
2017-02-20T08:13:05.260Z,55
2017-02-20T08:14:14.200Z,60
2017-02-20T08:15:23.947Z,75
2017-02-20T08:16:33.982Z,85
2017-02-20T08:17:42.922Z,85
2017-02-20T08:18:51.855Z,70
2017-02-20T08:20:01.607Z,70
2017-02-20T08:21:11.759Z,70
2017-02-20T08:22:21.944Z,65
2017-02-20T08:23:30.883Z,70
2017-02-20T08:24:41.035Z,70
2017-02-20T08:25:50.374Z,70
2017-02-20T08:26:59.719Z,70
2017-02-20T08:28:09.227Z,60
2017-02-20T08:29:19.309Z,55
2017-02-20T08:30:28.920Z,60
2017-02-20T08:31:40.256Z,75
2017-02-20T08:32:51.269Z,65
2017-02-20T08:34:04.930Z,60
2017-02-20T08:35:19.495Z,70
2017-02-20T08:36:32.977Z,70
2017-02-20T08:37:46.199Z,65
2017-02-20T08:38:59.465Z,80
2017-02-20T08:40:13.590Z,85
2017-02-20T08:41:28.865Z,75
2017-02-20T08:42:42.585Z,65
2017-02-20T08:43:55.349Z,85
2017-02-20T08:45:07.302Z,75
2017-02-20T08:46:21.976Z,75
2017-02-20T08:47:35.132Z,70
2017-02-20T08:48:48.832Z,75
2017-02-20T08:50:02.887Z,85
2017-02-20T08:51:17.407Z,90
2017-02-20T08:52:31.451Z,70
2017-02-20T08:53:45.798Z,90
2017-02-20T08:54:59.492Z,90
2017-02-20T08:56:12.885Z,85
2017-02-20T08:57:26.308Z,80
2017-02-20T08:58:40.073Z,90
2017-02-20T08:59:52.830Z,115
2017-02-20T09:01:06.448Z,105
2017-02-20T09:02:19.810Z,100
2017-02-20T09:03:34.228Z,105
2017-02-20T09:04:47.914Z,110
2017-02-20T09:06:01.431Z,105
2017-02-20T09:07:14.244Z,110
2017-02-20T09:08:27.619Z,105
2017-02-20T09:09:38.651Z,120
2017-02-20T09:10:49.339Z,120
2017-02-20T09:12:00.023Z,105
2017-02-20T09:13:09.992Z,125
2017-02-20T09:14:21.443Z,130
2017-02-20T09:15:31.918Z,125
2017-02-20T09:16:42.364Z,115
2017-02-20T09:17:52.983Z,125
2017-02-20T09:19:03.696Z,115
2017-02-20T09:20:15.049Z,115
2017-02-20T09:21:25.079Z,110
2017-02-20T09:22:36.195Z,125
2017-02-20T09:23:46.480Z,105
2017-02-20T09:24:58.058Z,105
2017-02-20T09:26:10.191Z,100
2017-02-20T09:27:20.908Z,105
2017-02-20T09:28:32.391Z,110
2017-02-20T09:29:43.045Z,95
2017-02-20T09:30:52.802Z,95
2017-02-20T09:32:01.718Z,105
2017-02-20T09:33:10.646Z,105
2017-02-20T09:34:20.116Z,110
2017-02-20T09:35:29.032Z,115
2017-02-20T09:36:38.347Z,105
2017-02-20T09:37:48.074Z,110
2017-02-20T09:38:57.431Z,115
2017-02-20T09:40:07.054Z,125
2017-02-20T09:41:16.368Z,130
2017-02-20T09:42:25.278Z,140
2017-02-20T09:43:34.195Z,145
2017-02-20T09:44:43.945Z,135
2017-02-20T09:45:53.012Z,150
2017-02-20T09:47:01.937Z,150
2017-02-20T09:48:11.668Z,140
2017-02-20T09:49:21.397Z,165
2017-02-20T09:50:30.735Z,185
2017-02-20T09:51:40.218Z,175
2017-02-20T09:52:49.552Z,165
2017-02-20T09:53:58.873Z,155
2017-02-20T09:55:07.815Z,165
2017-02-20T09:56:17.147Z,160
2017-02-20T09:57:26.608Z,145
2017-02-20T09:58:37.156Z,115
2017-02-20T09:59:46.898Z,105
2017-02-20T10:00:57.039Z,110
2017-02-20T10:02:06.810Z,110
2017-02-20T10:03:16.643Z,145
2017-02-20T10:04:26.383Z,130
2017-02-20T10:05:35.709Z,125
2017-02-20T10:06:44.640Z,115
2017-02-20T10:07:54.371Z,105
2017-02-20T10:09:03.447Z,110
2017-02-20T10:10:12.366Z,115
2017-02-20T10:11:21.695Z,110
2017-02-20T10:12:31.060Z,135
2017-02-20T10:13:39.988Z,120
2017-02-20T10:14:49.771Z,145
2017-02-20T10:15:59.105Z,125
2017-02-20T10:17:08.434Z,120
2017-02-20T10:18:17.773Z,120
2017-02-20T10:19:27.909Z,135
2017-02-20T10:20:37.551Z,115
2017-02-20T10:21:46.481Z,135
2017-02-20T10:22:56.233Z,105
2017-02-20T10:24:05.201Z,110
2017-02-20T10:25:14.931Z,110
2017-02-20T10:26:24.422Z,105
2017-02-20T10:27:33.760Z,115
2017-02-20T10:28:43.089Z,100
2017-02-20T10:29:52.438Z,110
2017-02-20T10:31:01.763Z,120
2017-02-20T10:32:10.873Z,85
2017-02-20T10:33:20.612Z,100
2017-02-20T10:34:29.941Z,110
2017-02-20T10:35:39.284Z,105
2017-02-20T10:36:49.032Z,100
2017-02-20T10:37:58.115Z,125
2017-02-20T10:39:07.853Z,120
2017-02-20T10:40:17.588Z,135
2017-02-20T10:41:26.502Z,150
2017-02-20T10:42:36.250Z,130
2017-02-20T10:43:45.678Z,165
2017-02-20T10:44:55.418Z,130
2017-02-20T10:46:04.756Z,150
2017-02-20T10:47:14.512Z,195
2017-02-20T10:48:23.854Z,175
2017-02-20T10:49:33.391Z,120
2017-02-20T10:50:43.154Z,120
2017-02-20T10:51:52.504Z,145
2017-02-20T10:53:02.235Z,170
2017-02-20T10:54:11.560Z,170
2017-02-20T10:55:20.956Z,170
2017-02-20T10:56:30.282Z,160
2017-02-20T10:57:39.611Z,160
2017-02-20T10:58:48.545Z,135
2017-02-20T10:59:58.280Z,140
2017-02-20T11:01:07.246Z,145
2017-02-20T11:02:16.178Z,120
2017-02-20T11:03:25.500Z,105
2017-02-20T11:04:34.412Z,125
2017-02-20T11:05:43.383Z,150
2017-02-20T11:06:52.606Z,115
2017-02-20T11:08:01.935Z,105
2017-02-20T11:09:11.262Z,100
2017-02-20T11:10:20.599Z,95
2017-02-20T11:11:29.930Z,105
2017-02-20T11:12:39.264Z,135
2017-02-20T11:13:49.403Z,110
2017-02-20T11:14:58.753Z,85
2017-02-20T11:16:08.495Z,90
2017-02-20T11:17:17.832Z,95
2017-02-20T11:18:27.166Z,110
2017-02-20T11:19:36.505Z,115
2017-02-20T11:20:45.428Z,105
2017-02-20T11:21:55.179Z,105
2017-02-20T11:23:04.937Z,105
2017-02-20T11:24:14.010Z,110
2017-02-20T11:25:22.921Z,130
2017-02-20T11:26:31.832Z,135
2017-02-20T11:27:41.159Z,145
2017-02-20T11:28:50.075Z,120
2017-02-20T11:29:59.935Z,115
2017-02-20T11:31:10.514Z,115
2017-02-20T11:32:19.434Z,110
2017-02-20T11:33:29.571Z,100
2017-02-20T11:34:38.889Z,115
2017-02-20T11:35:48.314Z,110
2017-02-20T11:36:57.633Z,120
2017-02-20T11:38:07.789Z,115
2017-02-20T11:39:17.557Z,110
2017-02-20T11:40:26.472Z,115
2017-02-20T11:41:35.409Z,105
2017-02-20T11:42:44.742Z,110
2017-02-20T11:43:54.059Z,110
2017-02-20T11:45:04.212Z,110
2017-02-20T11:46:13.130Z,105
2017-02-20T11:47:22.354Z,105
2017-02-20T11:48:32.113Z,100
2017-02-20T11:49:41.034Z,105
2017-02-20T11:50:50.381Z,110
2017-02-20T11:51:59.706Z,110
2017-02-20T11:53:09.054Z,110
2017-02-20T11:54:18.378Z,110
2017-02-20T11:55:28.107Z,110
2017-02-20T11:56:37.445Z,115
2017-02-20T11:57:47.620Z,120
2017-02-20T11:58:57.109Z,110
2017-02-20T12:00:06.562Z,110
2017-02-20T12:01:15.922Z,115
2017-02-20T12:02:24.908Z,115
2017-02-20T12:03:34.277Z,115
2017-02-20T12:04:43.652Z,130
2017-02-20T12:05:52.984Z,115
2017-02-20T12:07:02.304Z,120
2017-02-20T12:08:11.243Z,110
2017-02-20T12:09:20.978Z,110
2017-02-20T12:10:30.007Z,110
2017-02-20T12:11:39.327Z,120
2017-02-20T12:12:48.664Z,115
2017-02-20T12:13:57.987Z,115
2017-02-20T12:15:07.341Z,130
2017-02-20T12:16:17.261Z,130
2017-02-20T12:17:26.703Z,130
2017-02-20T12:18:36.440Z,120
2017-02-20T12:19:45.791Z,120
2017-02-20T12:20:55.940Z,130
2017-02-20T12:22:05.436Z,125
2017-02-20T12:23:14.358Z,110
2017-02-20T12:24:23.734Z,135
2017-02-20T12:25:33.889Z,135
2017-02-20T12:26:42.873Z,135
2017-02-20T12:27:51.861Z,155
2017-02-20T12:29:02.002Z,150
2017-02-20T12:30:12.157Z,135
2017-02-20T12:31:21.907Z,170
2017-02-20T12:32:30.830Z,180
2017-02-20T12:33:39.815Z,185
2017-02-20T12:34:49.161Z,175
2017-02-20T12:35:58.125Z,165
2017-02-20T12:37:07.466Z,175
2017-02-20T12:38:16.810Z,155
2017-02-20T12:39:25.943Z,145
2017-02-20T12:40:35.674Z,150
2017-02-20T12:41:45.407Z,145
2017-02-20T12:42:54.741Z,135
2017-02-20T12:44:04.067Z,115
2017-02-20T12:45:14.001Z,110
2017-02-20T12:46:24.070Z,95
2017-02-20T12:47:33.803Z,110
2017-02-20T12:48:43.997Z,105
2017-02-20T12:49:52.930Z,110
2017-02-20T12:51:02.611Z,110
2017-02-20T12:52:11.534Z,110
2017-02-20T12:53:21.319Z,125
2017-02-20T12:54:30.653Z,110
2017-02-20T12:55:39.993Z,115
2017-02-20T12:56:49.204Z,120
2017-02-20T12:57:58.166Z,145
2017-02-20T12:59:07.922Z,110
2017-02-20T13:00:17.250Z,130
2017-02-20T13:01:26.577Z,110
2017-02-20T13:02:35.530Z,115
2017-02-20T13:03:44.476Z,95
2017-02-20T13:04:53.840Z,95
2017-02-20T13:06:03.595Z,95
2017-02-20T13:07:12.544Z,95
2017-02-20T13:08:22.418Z,90
2017-02-20T13:09:31.738Z,90
2017-02-20T13:10:41.891Z,90
2017-02-20T13:11:52.083Z,105
2017-02-20T13:13:02.035Z,105
2017-02-20T13:14:11.946Z,105
2017-02-20T13:15:21.680Z,110
2017-02-20T13:16:31.033Z,110
2017-02-20T13:17:40.779Z,100
2017-02-20T13:18:49.727Z,100
2017-02-20T13:19:59.626Z,95
2017-02-20T13:21:09.395Z,110
2017-02-20T13:22:19.182Z,90
2017-02-20T13:23:28.925Z,95
2017-02-20T13:24:38.296Z,95
2017-02-20T13:25:47.794Z,90
2017-02-20T13:26:56.718Z,80
2017-02-20T13:28:06.103Z,90
2017-02-20T13:29:15.870Z,85
2017-02-20T13:30:25.214Z,90
2017-02-20T13:31:34.695Z,85
2017-02-20T13:32:44.069Z,90
2017-02-20T13:33:53.396Z,90
2017-02-20T13:35:03.184Z,95
2017-02-20T13:36:12.928Z,100
2017-02-20T13:37:22.015Z,90
2017-02-20T13:38:32.163Z,90
2017-02-20T13:39:41.939Z,90
2017-02-20T13:40:51.266Z,90
2017-02-20T13:42:00.998Z,90
2017-02-20T13:43:10.237Z,85
2017-02-20T13:44:20.787Z,95
2017-02-20T13:45:30.939Z,95
2017-02-20T13:46:39.889Z,95
2017-02-20T13:47:49.631Z,95
2017-02-20T13:48:58.606Z,115
2017-02-20T13:50:08.756Z,110
2017-02-20T13:51:18.097Z,110
2017-02-20T13:52:27.475Z,125
2017-02-20T13:53:37.630Z,120
2017-02-20T13:54:47.542Z,115
2017-02-20T13:55:56.875Z,140
2017-02-20T13:57:05.796Z,120
2017-02-20T13:58:15.120Z,105
2017-02-20T13:59:24.448Z,110
2017-02-20T14:00:33.829Z,105
2017-02-20T14:01:43.167Z,105
2017-02-20T14:02:52.506Z,115
2017-02-20T14:04:02.256Z,115
2017-02-20T14:05:11.588Z,95
2017-02-20T14:06:21.090Z,110
2017-02-20T14:07:31.252Z,95
2017-02-20T14:08:41.420Z,105
2017-02-20T14:09:51.171Z,105
2017-02-20T14:11:00.511Z,100
2017-02-20T14:12:09.587Z,105
2017-02-20T14:13:19.332Z,105
2017-02-20T14:14:29.495Z,110
2017-02-20T14:15:38.838Z,115
2017-02-20T14:16:47.767Z,100
2017-02-20T14:17:57.160Z,100
2017-02-20T14:19:06.522Z,95
2017-02-20T14:20:15.843Z,85
2017-02-20T14:21:25.579Z,80
2017-02-20T14:22:34.931Z,70
2017-02-20T14:23:45.632Z,75
2017-02-20T14:24:56.191Z,80
2017-02-20T14:26:06.333Z,75
2017-02-20T14:27:15.251Z,70
2017-02-20T14:28:24.983Z,85
2017-02-20T14:29:34.883Z,105
2017-02-20T14:30:44.271Z,110
2017-02-20T14:31:54.435Z,125
2017-02-20T14:33:04.210Z,110
2017-02-20T14:34:13.534Z,125
2017-02-20T14:35:23.881Z,105
2017-02-20T14:36:34.023Z,105
2017-02-20T14:37:43.361Z,105
2017-02-20T14:38:53.121Z,95
2017-02-20T14:40:02.856Z,85
2017-02-20T14:41:12.244Z,95
2017-02-20T14:42:21.576Z,95
2017-02-20T14:43:30.508Z,95
2017-02-20T14:44:39.419Z,140
2017-02-20T14:45:48.341Z,115
2017-02-20T14:46:57.316Z,105
2017-02-20T14:48:07.864Z,95
2017-02-20T14:49:17.210Z,85
2017-02-20T14:50:26.562Z,80
2017-02-20T14:51:35.904Z,70
2017-02-20T14:52:45.236Z,75
2017-02-20T14:53:55.378Z,95
2017-02-20T14:55:05.125Z,80
2017-02-20T14:56:14.895Z,90
2017-02-20T14:57:23.817Z,65
2017-02-20T14:58:34.022Z,65
2017-02-20T14:59:42.990Z,60
2017-02-20T15:00:52.744Z,60
2017-02-20T15:02:02.097Z,75
2017-02-20T15:03:11.428Z,70
2017-02-20T15:04:20.558Z,70
2017-02-20T15:05:29.890Z,75
2017-02-20T15:06:38.839Z,70
2017-02-20T15:07:47.775Z,85
2017-02-20T15:08:57.509Z,75
2017-02-20T15:10:06.952Z,70
2017-02-20T15:11:16.712Z,70
2017-02-20T15:12:26.061Z,60
2017-02-20T15:13:36.618Z,50
2017-02-20T15:14:46.473Z,55
2017-02-20T15:15:55.952Z,55
2017-02-20T15:17:06.183Z,55
2017-02-20T15:18:15.935Z,45
2017-02-20T15:19:25.678Z,35
2017-02-20T15:20:35.016Z,30
2017-02-20T15:21:44.400Z,30
2017-02-20T15:22:54.177Z,25
2017-02-20T15:24:03.100Z,20
2017-02-20T15:25:12.843Z,25
2017-02-20T15:26:21.762Z,30
2017-02-20T15:27:31.337Z,30
2017-02-20T15:28:40.289Z,25
2017-02-20T15:29:49.648Z,20
2017-02-20T15:30:59.792Z,20
2017-02-20T15:32:09.138Z,15
2017-02-20T15:33:19.045Z,15
2017-02-20T15:34:28.805Z,15
2017-02-20T15:35:38.546Z,15
2017-02-20T15:36:47.897Z,15
2017-02-20T15:37:57.273Z,10
2017-02-20T15:39:07.012Z,10
2017-02-20T15:40:16.358Z,10
2017-02-20T15:41:26.810Z,15
2017-02-20T15:42:35.741Z,15
2017-02-20T15:43:44.679Z,15
2017-02-20T15:44:54.926Z,15
2017-02-20T15:46:04.278Z,15
2017-02-20T15:47:14.055Z,15
2017-02-20T15:48:24.135Z,15
2017-02-20T15:49:33.175Z,15
2017-02-20T15:50:43.344Z,20
2017-02-20T15:51:53.208Z,15
2017-02-20T15:53:03.290Z,20
2017-02-20T15:54:12.754Z,20
2017-02-20T15:55:22.520Z,20
2017-02-20T15:56:32.003Z,15
2017-02-20T15:57:41.347Z,15
2017-02-20T15:58:50.277Z,15
2017-02-20T15:59:59.209Z,10
2017-02-20T16:01:08.953Z,10
2017-02-20T16:02:18.327Z,10
2017-02-20T16:03:27.665Z,10
2017-02-20T16:04:37.436Z,10
2017-02-20T16:05:47.301Z,5
2017-02-20T16:06:56.248Z,10
2017-02-20T16:08:05.649Z,10
2017-02-20T16:09:14.994Z,10
2017-02-20T16:10:24.738Z,10
2017-02-20T16:11:33.668Z,10
2017-02-20T16:12:42.996Z,10
2017-02-20T16:13:52.623Z,5
2017-02-20T16:15:02.219Z,0
2017-02-20T16:16:11.565Z,0
2017-02-20T16:17:20.491Z,0
2017-02-20T16:18:30.232Z,0
2017-02-20T16:19:39.583Z,0
2017-02-20T16:20:49.336Z,0
2017-02-20T16:21:58.777Z,0
2017-02-20T16:23:08.513Z,0
2017-02-20T16:24:17.841Z,0
2017-02-20T16:25:26.766Z,0
2017-02-20T16:26:36.101Z,0
2017-02-20T16:27:45.858Z,0
2017-02-20T16:28:55.244Z,0
2017-02-20T16:30:05.395Z,0
2017-02-20T16:31:14.762Z,0
2017-02-20T16:32:24.104Z,0
2017-02-20T16:33:34.276Z,0
2017-02-20T16:34:43.193Z,0
2017-02-20T16:35:52.150Z,0
2017-02-20T16:37:01.490Z,0
2017-02-20T16:38:10.434Z,0
2017-02-20T16:39:19.355Z,0